Jeffrey City, Wyoming
Current Conditions -  °F | °C
As of 4:15 PM on Wednesday 22 Oct 2014 (Local Time) from KFWZ Reporting Station
Clear Clear  
Wind Chill: 39°   Ceiling: Unl
Heat Index: 45°   Visibility: 10mi
Dew Point: 16°   Wind: 12mph
Humidity: 31%   Direction: 250°WSW
Pressure: 30.12"   Gusts: 18mph
Location:  42.49°N, 107.83°W
Report Text: KFWZ 222215Z AUTO 25010G16KT 10SM CLR 07/M09 A3012 RMK AO2
Loading
Personal Weather Stations






























Interactive Weather Map
Tropical Storm Tracking
New forecast layout! Learn more

10-Day Weather Forecast

Advertisements
Track Severe Weather on mobile